createdAt,value
2019-06-15T03:19:03.390Z,16.00
2019-06-15T03:56:02.978Z,92.00
2019-06-15T04:05:02.861Z,108.00
2019-06-15T04:07:02.848Z,104.00
2019-06-15T04:09:02.820Z,116.00
2019-06-15T04:10:02.818Z,132.00
2019-06-15T04:11:02.794Z,164.00
2019-06-15T04:12:02.788Z,188.00
2019-06-15T04:13:02.772Z,176.00
2019-06-15T04:14:02.777Z,164.00
2019-06-15T04:15:02.747Z,152.00
2019-06-15T04:16:02.738Z,144.00
2019-06-15T04:18:03.954Z,132.00
2019-06-15T04:19:02.706Z,128.00
2019-06-15T04:20:02.755Z,128.00
2019-06-15T04:21:02.674Z,128.00
2019-06-15T04:23:02.663Z,160.00
2019-06-15T04:24:02.661Z,160.00
2019-06-15T04:25:02.711Z,164.00
2019-06-15T04:26:02.616Z,168.00
2019-06-15T04:29:02.590Z,164.00
2019-06-15T04:30:02.576Z,156.00
2019-06-15T04:31:02.565Z,148.00
2019-06-15T04:32:02.560Z,144.00
2019-06-15T04:35:02.517Z,168.00
2019-06-15T04:36:02.508Z,176.00
2019-06-15T04:37:02.494Z,176.00
2019-06-15T04:40:02.500Z,180.00
2019-06-15T04:42:02.489Z,148.00
2019-06-15T04:43:02.425Z,140.00
2019-06-15T04:44:02.411Z,156.00
2019-06-15T04:45:02.403Z,188.00
2019-06-15T04:46:02.388Z,212.00
2019-06-15T04:48:02.371Z,248.00
2019-06-15T04:49:02.412Z,260.00
2019-06-15T04:50:02.368Z,280.00
2019-06-15T04:52:02.322Z,336.00
2019-06-15T04:54:02.300Z,324.00
2019-06-15T04:55:02.302Z,320.00
2019-06-15T04:56:02.297Z,324.00
2019-06-15T04:57:02.272Z,304.00
2019-06-15T05:01:02.220Z,280.00
2019-06-15T05:02:02.267Z,248.00
2019-06-15T05:04:02.187Z,192.00
2019-06-15T05:05:02.207Z,180.00
2019-06-15T05:06:02.196Z,180.00
2019-06-15T05:07:02.158Z,184.00
2019-06-15T05:08:02.146Z,180.00
2019-06-15T05:10:02.149Z,184.00
2019-06-15T05:11:03.647Z,196.00
2019-06-15T05:12:02.105Z,212.00
2019-06-15T05:13:02.099Z,232.00
2019-06-15T05:15:02.092Z,264.00
2019-06-15T05:17:02.060Z,300.00
2019-06-15T05:18:02.034Z,312.00
2019-06-15T05:20:02.038Z,328.00
2019-06-15T05:22:02.160Z,324.00
2019-06-15T05:23:01.967Z,324.00
2019-06-15T05:25:01.953Z,324.00
2019-06-15T05:26:01.936Z,312.00
2019-06-15T05:28:01.921Z,268.00
2019-06-15T05:29:01.914Z,264.00
2019-06-15T05:30:01.906Z,276.00
2019-06-15T05:32:01.881Z,260.00
2019-06-15T05:33:01.887Z,264.00
2019-06-15T05:34:01.858Z,272.00
2019-06-15T05:35:01.837Z,256.00
2019-06-15T05:38:01.806Z,228.00
2019-06-15T05:39:01.788Z,220.00
2019-06-15T05:42:01.786Z,244.00
2019-06-15T05:43:01.737Z,264.00
2019-06-15T05:44:01.741Z,276.00
2019-06-15T05:45:01.725Z,280.00
2019-06-15T05:46:01.729Z,300.00
2019-06-15T05:47:01.688Z,316.00
2019-06-15T05:50:01.656Z,332.00
2019-06-15T05:51:01.651Z,348.00
2019-06-15T05:53:01.625Z,328.00
2019-06-15T05:56:01.705Z,296.00
2019-06-15T05:57:01.584Z,292.00
2019-06-15T05:58:01.564Z,280.00
2019-06-15T05:59:01.566Z,268.00
2019-06-15T06:00:01.554Z,276.00
2019-06-15T06:01:01.527Z,300.00
2019-06-15T06:02:01.524Z,376.00
2019-06-15T06:03:01.512Z,516.00
2019-06-15T06:04:01.491Z,660.00
2019-06-15T06:05:01.503Z,780.00
2019-06-15T06:08:01.450Z,1004.00
2019-06-15T06:09:01.446Z,1032.00
2019-06-15T06:10:01.439Z,1192.00
2019-06-15T06:11:01.423Z,1376.00
2019-06-15T06:12:01.486Z,1480.00
2019-06-15T06:13:01.394Z,1548.00
2019-06-15T06:14:01.377Z,1668.00
2019-06-15T06:15:01.370Z,1848.00
2019-06-15T06:17:01.346Z,1936.00
2019-06-15T06:18:01.345Z,1936.00
2019-06-15T06:22:01.355Z,1948.00
2019-06-15T06:23:01.281Z,1932.00
2019-06-15T06:24:01.279Z,1944.00
2019-06-15T06:26:01.250Z,1976.00
2019-06-15T06:27:01.278Z,2008.00
2019-06-15T06:28:01.223Z,2064.00
2019-06-15T06:29:01.217Z,2112.00
2019-06-15T06:30:01.213Z,2140.00
2019-06-15T06:31:01.203Z,2168.00
2019-06-15T06:32:01.187Z,2140.00
2019-06-15T06:33:01.171Z,2188.00
2019-06-15T06:34:01.154Z,2228.00
2019-06-15T06:35:01.148Z,2240.00
2019-06-15T06:36:01.227Z,2272.00
2019-06-15T06:37:01.143Z,2320.00
2019-06-15T06:39:01.104Z,2344.00
2019-06-15T06:41:01.138Z,2388.00
2019-06-15T06:42:01.065Z,2388.00
2019-06-15T06:43:01.062Z,2376.00
2019-06-15T06:44:01.054Z,2360.00
2019-06-15T06:45:01.043Z,2308.00
2019-06-15T06:46:01.041Z,2212.00
2019-06-15T06:47:01.027Z,2048.00
2019-06-15T06:48:01.024Z,1916.00
2019-06-15T06:49:00.995Z,1956.00
2019-06-15T06:51:01.068Z,1988.00
2019-06-15T06:52:00.958Z,1984.00
2019-06-15T06:54:00.931Z,2076.00
2019-06-15T06:55:00.928Z,2116.00
2019-06-15T06:56:00.921Z,2148.00
2019-06-15T06:57:00.904Z,2200.00
2019-06-15T06:58:00.909Z,2256.00
2019-06-15T07:01:00.859Z,2496.00
2019-06-15T07:02:00.909Z,2508.00
2019-06-15T07:03:00.841Z,2492.00
2019-06-15T07:05:00.817Z,2572.00
2019-06-15T07:06:00.800Z,2592.00
2019-06-15T07:07:00.800Z,2644.00
2019-06-15T07:08:00.778Z,2716.00
2019-06-15T07:10:00.762Z,2564.00
2019-06-15T07:12:00.746Z,2372.00
2019-06-15T07:13:00.723Z,2108.00
2019-06-15T07:15:00.735Z,1768.00
2019-06-15T07:16:00.706Z,1632.00
2019-06-15T07:18:00.679Z,1636.00
2019-06-15T07:19:00.667Z,3176.00
2019-06-15T07:20:00.957Z,2384.00
2019-06-15T07:21:00.665Z,2488.00
2019-06-15T07:23:00.623Z,1888.00
2019-06-15T07:24:00.609Z,1832.00
2019-06-15T07:25:00.661Z,2280.00
2019-06-15T07:26:00.584Z,1604.00
2019-06-15T07:28:08.079Z,1656.00
2019-06-15T07:29:22.242Z,2624.00
2019-06-15T07:30:22.212Z,2428.00
2019-06-15T07:31:22.207Z,2292.00
2019-06-15T07:37:22.143Z,3008.00
2019-06-15T07:38:22.138Z,3008.00
2019-06-15T07:39:22.151Z,2004.00
2019-06-15T07:40:22.103Z,1960.00
2019-06-15T07:41:22.120Z,2604.00
2019-06-15T07:42:22.098Z,2868.00
2019-06-15T07:46:22.071Z,3440.00
2019-06-15T07:48:22.017Z,3656.00
2019-06-15T07:50:22.021Z,3384.00
2019-06-15T07:52:21.991Z,2924.00
2019-06-15T07:53:21.967Z,3524.00
2019-06-15T07:54:21.955Z,2596.00
2019-06-15T07:55:21.962Z,3216.00
2019-06-15T07:56:21.945Z,2520.00
2019-06-15T07:57:21.976Z,2124.00
2019-06-15T08:00:21.895Z,2192.00
2019-06-15T08:03:21.858Z,1992.00
2019-06-15T08:04:21.850Z,3020.00
2019-06-15T08:05:21.836Z,3368.00
2019-06-15T08:06:21.827Z,3620.00
2019-06-15T08:09:21.791Z,1492.00
2019-06-15T08:11:21.778Z,1096.00
2019-06-15T08:12:21.771Z,1124.00
2019-06-15T08:13:21.769Z,1236.00
2019-06-15T08:14:21.747Z,1476.00
2019-06-15T08:15:21.740Z,2676.00
2019-06-15T08:16:21.718Z,3200.00
2019-06-15T08:17:21.719Z,2660.00
2019-06-15T08:19:21.689Z,2320.00
2019-06-15T08:21:21.661Z,2008.00
2019-06-15T08:22:21.656Z,2024.00
2019-06-15T08:23:21.642Z,2608.00
2019-06-15T08:25:21.623Z,2692.00
2019-06-15T08:26:21.623Z,2596.00
2019-06-15T08:27:21.600Z,2300.00
2019-06-15T08:28:21.589Z,2536.00
2019-06-15T08:29:21.598Z,2640.00
2019-06-15T08:30:21.569Z,2716.00
2019-06-15T08:31:21.559Z,2960.00
2019-06-15T08:32:21.541Z,2260.00
2019-06-15T08:33:21.536Z,2040.00
2019-06-15T08:34:21.529Z,1440.00
2019-06-15T08:35:21.532Z,1348.00
2019-06-15T08:37:21.497Z,1200.00
2019-06-15T08:38:21.600Z,1964.00
2019-06-15T08:39:21.468Z,1524.00
2019-06-15T08:40:21.477Z,1740.00
2019-06-15T08:41:21.450Z,1688.00
2019-06-15T08:42:21.434Z,1760.00
2019-06-15T08:43:21.426Z,1760.00
2019-06-15T08:44:21.433Z,1840.00
2019-06-15T08:45:21.407Z,1840.00
2019-06-15T08:46:21.394Z,1456.00
2019-06-15T08:47:21.402Z,1856.00
2019-06-15T08:49:21.385Z,1948.00
2019-06-15T08:50:21.361Z,1872.00
2019-06-15T08:51:21.338Z,1912.00
2019-06-15T08:52:21.327Z,1392.00
2019-06-15T08:53:21.329Z,1508.00
2019-06-15T08:54:21.307Z,1580.00
2019-06-15T08:55:21.296Z,1784.00
2019-06-15T08:56:21.308Z,1928.00
2019-06-15T09:01:21.243Z,1604.00
2019-06-15T09:03:21.218Z,1772.00
2019-06-15T09:07:21.246Z,1592.00
2019-06-15T09:08:21.158Z,1536.00
2019-06-15T09:10:21.151Z,1464.00
2019-06-15T09:12:21.125Z,1632.00
2019-06-15T09:14:21.110Z,1444.00
2019-06-15T09:34:31.492Z,1832.00
2019-06-15T09:36:31.483Z,1636.00
2019-06-15T09:40:31.516Z,1552.00
2019-06-15T09:50:31.323Z,1460.00
2019-06-15T09:51:31.308Z,1468.00
2019-06-15T09:57:31.238Z,1668.00
2019-06-15T10:01:31.212Z,2348.00
2019-06-15T10:17:31.074Z,1768.00
2019-06-15T10:19:30.990Z,1668.00
2019-06-15T10:24:30.941Z,1556.00
2019-06-15T10:51:52.365Z,3584.00
2019-06-15T10:53:52.366Z,3556.00
2019-06-15T11:35:51.894Z,1604.00
2019-06-15T11:47:51.759Z,3460.00
2019-06-15T11:54:51.702Z,3224.00
2019-06-15T13:22:19.343Z,1860.00
2019-06-15T13:30:19.268Z,1152.00
2019-06-15T13:41:19.140Z,1532.00
2019-06-15T14:06:40.408Z,1696.00
2019-06-15T14:18:40.251Z,1512.00
2019-06-15T14:23:40.205Z,1724.00
2019-06-15T14:24:40.199Z,1648.00
2019-06-15T14:26:40.186Z,1400.00
2019-06-15T14:29:40.149Z,1208.00
2019-06-15T14:34:02.619Z,1264.00
2019-06-15T14:37:02.525Z,1180.00
2019-06-15T14:41:02.494Z,912.00
2019-06-15T14:42:02.476Z,916.00
2019-06-15T14:44:02.475Z,952.00
2019-06-15T14:46:02.434Z,1152.00
2019-06-15T14:51:02.386Z,1232.00
2019-06-15T14:52:02.361Z,1212.00
2019-06-15T14:54:02.339Z,1284.00
2019-06-15T14:55:02.390Z,1364.00
2019-06-15T14:56:02.407Z,1468.00
2019-06-15T15:16:01.457Z,1692.00
2019-06-15T15:17:01.442Z,1684.00
2019-06-15T15:18:01.431Z,1744.00
2019-06-15T15:19:01.435Z,1832.00
2019-06-15T15:21:01.386Z,1872.00
2019-06-15T15:23:01.390Z,2032.00
2019-06-15T15:26:01.331Z,2120.00
2019-06-15T15:28:01.346Z,2084.00
2019-06-15T15:29:01.312Z,2056.00
2019-06-15T15:30:01.651Z,2064.00
2019-06-15T15:31:01.309Z,2084.00
2019-06-15T15:33:01.249Z,2064.00
2019-06-15T15:34:04.172Z,2172.00
2019-06-15T15:35:01.237Z,2316.00
2019-06-15T15:37:01.218Z,2340.00
2019-06-15T15:38:01.198Z,2364.00
2019-06-15T15:40:01.192Z,2232.00
2019-06-15T15:41:01.167Z,2216.00
2019-06-15T15:43:01.143Z,2028.00
2019-06-15T15:45:01.130Z,1924.00
2019-06-15T15:46:01.111Z,1816.00
2019-06-15T15:49:01.099Z,1564.00
2019-06-15T15:50:01.108Z,1680.00
2019-06-15T15:51:01.062Z,2008.00
2019-06-15T15:52:01.042Z,2000.00
2019-06-15T15:53:01.043Z,2020.00
2019-06-15T15:54:01.028Z,2012.00
2019-06-15T15:55:01.017Z,1796.00
2019-06-15T15:56:01.006Z,1564.00
2019-06-15T15:57:01.002Z,1524.00
2019-06-15T15:58:00.982Z,1472.00
2019-06-15T15:59:00.967Z,1432.00
2019-06-15T16:00:00.958Z,1436.00
2019-06-15T16:01:01.000Z,1428.00
2019-06-15T16:02:00.941Z,1488.00
2019-06-15T16:03:00.927Z,1292.00
2019-06-15T16:04:00.924Z,1328.00
2019-06-15T16:05:00.915Z,1244.00
2019-06-15T16:06:00.913Z,1136.00
2019-06-15T16:07:00.880Z,1248.00
2019-06-15T16:08:00.874Z,1196.00
2019-06-15T16:09:00.862Z,1344.00
2019-06-15T16:10:00.868Z,1548.00
2019-06-15T16:11:00.846Z,1504.00
2019-06-15T16:12:00.832Z,1596.00
2019-06-15T16:13:00.841Z,1772.00
2019-06-15T16:14:00.807Z,1784.00
2019-06-15T16:15:00.802Z,1556.00
2019-06-15T16:16:00.782Z,1432.00
2019-06-15T16:17:00.790Z,1320.00
2019-06-15T16:18:00.768Z,1288.00
2019-06-15T16:19:00.763Z,1260.00
2019-06-15T16:20:00.742Z,1188.00
2019-06-15T16:21:00.729Z,1188.00
2019-06-15T16:22:00.723Z,1184.00
2019-06-15T16:23:00.732Z,1196.00
2019-06-15T16:24:00.709Z,1208.00
2019-06-15T16:25:00.700Z,1236.00
2019-06-15T16:26:00.671Z,1056.00
2019-06-15T16:27:00.663Z,1076.00
2019-06-15T16:28:00.651Z,960.00
2019-06-15T16:29:00.795Z,1092.00
2019-06-15T16:30:00.630Z,1064.00
2019-06-15T16:31:09.175Z,1068.00
2019-06-15T16:32:22.430Z,1028.00
2019-06-15T16:33:22.421Z,984.00
2019-06-15T16:34:22.415Z,940.00
2019-06-15T16:35:22.400Z,1012.00
2019-06-15T16:36:22.392Z,884.00
2019-06-15T16:37:22.376Z,1096.00
2019-06-15T16:38:22.375Z,1172.00
2019-06-15T16:39:22.366Z,1148.00
2019-06-15T16:40:22.344Z,1264.00
2019-06-15T16:41:22.334Z,1284.00
2019-06-15T16:42:22.326Z,1160.00
2019-06-15T16:43:25.209Z,1128.00
2019-06-15T16:44:22.306Z,1104.00
2019-06-15T16:45:22.302Z,996.00
2019-06-15T16:46:22.280Z,932.00
2019-06-15T16:47:22.285Z,948.00
2019-06-15T16:48:22.265Z,1036.00
2019-06-15T16:49:22.261Z,1144.00
2019-06-15T16:50:22.259Z,1160.00
2019-06-15T16:51:22.232Z,1240.00
2019-06-15T16:52:22.211Z,1296.00
2019-06-15T16:53:22.207Z,1340.00
2019-06-15T16:54:22.186Z,1396.00
2019-06-15T16:55:22.180Z,1524.00
2019-06-15T16:56:22.167Z,1532.00
2019-06-15T16:57:22.166Z,1224.00
2019-06-15T16:58:22.144Z,1100.00
2019-06-15T16:59:22.161Z,992.00
2019-06-15T17:00:22.126Z,912.00
2019-06-15T17:01:22.126Z,872.00
2019-06-15T17:02:22.120Z,840.00
2019-06-15T17:03:26.071Z,828.00
2019-06-15T17:04:46.697Z,828.00
2019-06-15T17:05:46.590Z,788.00
2019-06-15T17:06:46.021Z,756.00
2019-06-15T17:07:46.058Z,784.00
2019-06-15T17:08:46.509Z,848.00
2019-06-15T17:09:46.541Z,780.00
2019-06-15T17:10:44.448Z,736.00
2019-06-15T17:11:47.014Z,744.00
2019-06-15T17:12:44.427Z,820.00
2019-06-15T17:13:44.427Z,868.00
2019-06-15T17:14:44.398Z,984.00
2019-06-15T17:15:46.847Z,1076.00
2019-06-15T17:16:46.044Z,1052.00
2019-06-15T17:17:46.091Z,1148.00
2019-06-15T17:18:46.903Z,1128.00
2019-06-15T17:19:46.595Z,1004.00
2019-06-15T17:20:46.517Z,956.00
2019-06-15T17:21:46.613Z,936.00
2019-06-15T17:22:47.110Z,912.00
2019-06-15T17:23:46.565Z,908.00
2019-06-15T17:24:45.995Z,892.00
2019-06-15T17:25:44.286Z,884.00
2019-06-15T17:26:46.703Z,888.00
2019-06-15T17:27:44.251Z,888.00
2019-06-15T17:28:46.008Z,892.00
2019-06-15T17:29:46.736Z,876.00
2019-06-15T17:30:44.215Z,864.00
2019-06-15T17:31:46.554Z,868.00
2019-06-15T17:32:44.198Z,884.00
2019-06-15T17:34:46.758Z,908.00
2019-06-15T17:35:56.111Z,932.00
2019-06-15T17:37:06.886Z,1008.00
2019-06-15T17:38:06.367Z,1064.00
2019-06-15T17:39:06.366Z,1116.00
2019-06-15T17:40:06.342Z,1152.00
2019-06-15T17:41:06.348Z,1220.00
2019-06-15T17:42:07.030Z,1268.00
2019-06-15T17:43:06.673Z,1308.00
2019-06-15T17:44:06.297Z,1336.00
2019-06-15T17:45:06.763Z,1328.00
2019-06-15T17:46:07.253Z,1340.00
2019-06-15T17:47:07.255Z,1348.00
2019-06-15T17:48:06.529Z,1352.00
2019-06-15T17:49:06.831Z,1260.00
2019-06-15T17:50:07.474Z,1252.00
2019-06-15T17:51:06.716Z,1216.00
2019-06-15T17:52:06.648Z,1236.00
2019-06-15T17:53:06.980Z,1280.00
2019-06-15T17:54:06.445Z,1312.00
2019-06-15T17:55:07.136Z,1364.00
2019-06-15T17:56:07.356Z,1372.00
2019-06-15T17:57:06.150Z,1340.00
2019-06-15T17:58:06.628Z,1320.00
2019-06-15T17:59:06.611Z,1324.00
2019-06-15T18:00:06.125Z,1372.00
2019-06-15T18:03:06.872Z,1372.00
2019-06-15T18:04:07.888Z,1356.00
2019-06-15T18:05:06.930Z,1360.00
2019-06-15T18:10:07.246Z,1088.00
2019-06-15T18:11:06.862Z,992.00
2019-06-15T18:12:06.564Z,940.00
2019-06-15T18:13:07.112Z,900.00
2019-06-15T18:15:05.957Z,900.00
2019-06-15T18:16:06.593Z,936.00
2019-06-15T18:17:07.220Z,928.00
2019-06-15T18:18:07.072Z,880.00
2019-06-15T18:19:06.952Z,828.00
2019-06-15T18:20:06.874Z,864.00
2019-06-15T18:22:07.190Z,952.00
2019-06-15T18:26:07.193Z,788.00
2019-06-15T18:27:08.991Z,740.00
2019-06-15T18:28:06.413Z,744.00
2019-06-15T18:30:06.570Z,768.00
2019-06-15T18:32:06.416Z,764.00
2019-06-15T18:34:10.309Z,748.00
2019-06-15T18:37:27.331Z,796.00
2019-06-15T18:49:27.194Z,556.00
2019-06-15T18:54:27.136Z,568.00
2019-06-15T18:58:27.097Z,456.00
2019-06-15T18:59:27.093Z,432.00
2019-06-15T19:14:27.270Z,268.00
2019-06-15T19:15:26.907Z,264.00
2019-06-15T19:21:26.838Z,136.00
